Terminal Aerodrome Forecast
Issued by NWS Upton, NY

Home | Current Version | Previous Version | Text Only | Print | Product List | Glossary On
Versions: 1 2 3 4 5 6 7 8 9 10 11 12 13 14 15 16 17 18 19 20 21 22 23 24 25 26 27 28 29 30 31 32 33 34 35 36 37 38 39 40 41 42 43 44 45 46 47 48 49 50
000
FTUS41 KOKX 182339
TAFLGA
TAF
KLGA 182339Z 1900/2006 05008KT P6SM OVC007
     FM190300 06005KT 6SM BR OVC004
     FM190500 VRB04KT 3SM BR OVC004
     FM190700 VRB04KT 1SM BR OVC002
      TEMPO 1908/1912 1/2SM FG
     FM191400 13006KT 3SM BR OVC006
     FM191600 14008KT P6SM VCSH OVC010
     FM191800 14009KT 5SM -SHRA BKN015
     FM200000 15006KT 6SM BR OVC015
     FM200300 15005KT 6SM BR OVC009=

USA.gov is the U.S. government's official web portal to all federal, state and local government web resources and services.